sensor_id;sensor_type;location;lat;lon;timestamp;P1;durP1;ratioP1;P2;durP2;ratioP2
21894;SDS011;11112;51.270;7.224;2023-09-19T00:00:36;8.23;;;1.83;;
21894;SDS011;11112;51.270;7.224;2023-09-19T00:03:03;9.50;;;1.70;;
21894;SDS011;11112;51.270;7.224;2023-09-19T00:05:35;9.63;;;2.10;;
21894;SDS011;11112;51.270;7.224;2023-09-19T00:08:04;6.18;;;1.50;;
21894;SDS011;11112;51.270;7.224;2023-09-19T00:10:33;7.88;;;2.03;;
21894;SDS011;11112;51.270;7.224;2023-09-19T00:13:01;6.30;;;1.60;;
21894;SDS011;11112;51.270;7.224;2023-09-19T00:15:31;8.15;;;1.90;;
21894;SDS011;11112;51.270;7.224;2023-09-19T00:18:04;8.40;;;2.10;;
21894;SDS011;11112;51.270;7.224;2023-09-19T00:20:31;8.43;;;1.92;;
21894;SDS011;11112;51.270;7.224;2023-09-19T00:23:01;8.10;;;2.00;;
21894;SDS011;11112;51.270;7.224;2023-09-19T00:25:33;10.32;;;1.70;;
21894;SDS011;11112;51.270;7.224;2023-09-19T00:28:02;8.55;;;2.10;;
21894;SDS011;11112;51.270;7.224;2023-09-19T00:30:30;9.93;;;2.03;;
21894;SDS011;11112;51.270;7.224;2023-09-19T00:32:58;6.97;;;1.75;;
21894;SDS011;11112;51.270;7.224;2023-09-19T00:35:26;11.30;;;1.80;;
21894;SDS011;11112;51.270;7.224;2023-09-19T00:37:53;5.57;;;1.90;;
21894;SDS011;11112;51.270;7.224;2023-09-19T00:40:23;8.65;;;1.70;;
21894;SDS011;11112;51.270;7.224;2023-09-19T00:42:52;8.90;;;2.10;;
21894;SDS011;11112;51.270;7.224;2023-09-19T00:45:25;9.40;;;1.80;;
21894;SDS011;11112;51.270;7.224;2023-09-19T00:47:53;8.43;;;1.70;;
21894;SDS011;11112;51.270;7.224;2023-09-19T00:50:23;11.18;;;2.05;;
21894;SDS011;11112;51.270;7.224;2023-09-19T00:52:53;10.50;;;1.90;;
21894;SDS011;11112;51.270;7.224;2023-09-19T00:55:23;9.05;;;1.80;;
21894;SDS011;11112;51.270;7.224;2023-09-19T00:57:53;10.65;;;1.80;;
21894;SDS011;11112;51.270;7.224;2023-09-19T01:00:23;9.00;;;1.80;;
21894;SDS011;11112;51.270;7.224;2023-09-19T01:02:51;9.90;;;2.10;;
21894;SDS011;11112;51.270;7.224;2023-09-19T01:05:18;8.55;;;1.88;;
21894;SDS011;11112;51.270;7.224;2023-09-19T01:07:45;6.18;;;1.75;;
21894;SDS011;11112;51.270;7.224;2023-09-19T01:10:14;8.35;;;1.90;;
21894;SDS011;11112;51.270;7.224;2023-09-19T01:12:48;7.72;;;2.08;;
21894;SDS011;11112;51.270;7.224;2023-09-19T01:15:22;11.57;;;2.13;;
21894;SDS011;11112;51.270;7.224;2023-09-19T01:18:00;9.20;;;1.95;;
21894;SDS011;11112;51.270;7.224;2023-09-19T01:20:39;10.40;;;2.30;;
21894;SDS011;11112;51.270;7.224;2023-09-19T01:23:14;7.88;;;1.63;;
21894;SDS011;11112;51.270;7.224;2023-09-19T01:25:59;8.20;;;2.03;;
21894;SDS011;11112;51.270;7.224;2023-09-19T01:28:59;9.05;;;1.98;;
21894;SDS011;11112;51.270;7.224;2023-09-19T01:31:46;8.77;;;2.22;;
21894;SDS011;11112;51.270;7.224;2023-09-19T01:34:15;8.85;;;1.90;;
21894;SDS011;11112;51.270;7.224;2023-09-19T01:36:43;7.68;;;1.90;;
21894;SDS011;11112;51.270;7.224;2023-09-19T01:39:11;9.25;;;1.95;;
21894;SDS011;11112;51.270;7.224;2023-09-19T01:44:31;9.60;;;1.70;;
21894;SDS011;11112;51.270;7.224;2023-09-19T01:47:12;8.20;;;1.95;;
21894;SDS011;11112;51.270;7.224;2023-09-19T01:49:48;8.82;;;1.98;;
21894;SDS011;11112;51.270;7.224;2023-09-19T01:52:23;9.20;;;2.03;;
21894;SDS011;11112;51.270;7.224;2023-09-19T01:54:57;8.95;;;1.80;;
21894;SDS011;11112;51.270;7.224;2023-09-19T01:57:32;10.35;;;1.83;;
21894;SDS011;11112;51.270;7.224;2023-09-19T02:00:07;10.95;;;2.58;;
21894;SDS011;11112;51.270;7.224;2023-09-19T02:02:39;13.20;;;2.15;;
21894;SDS011;11112;51.270;7.224;2023-09-19T02:05:09;9.43;;;2.20;;
21894;SDS011;11112;51.270;7.224;2023-09-19T02:07:37;12.18;;;2.70;;
21894;SDS011;11112;51.270;7.224;2023-09-19T02:10:05;10.95;;;2.28;;
21894;SDS011;11112;51.270;7.224;2023-09-19T02:12:35;10.60;;;2.15;;
21894;SDS011;11112;51.270;7.224;2023-09-19T02:15:03;8.20;;;2.05;;
21894;SDS011;11112;51.270;7.224;2023-09-19T02:17:32;11.65;;;1.80;;
21894;SDS011;11112;51.270;7.224;2023-09-19T02:20:00;13.77;;;2.30;;
21894;SDS011;11112;51.270;7.224;2023-09-19T02:22:35;8.52;;;1.88;;
21894;SDS011;11112;51.270;7.224;2023-09-19T02:25:03;12.23;;;2.20;;
21894;SDS011;11112;51.270;7.224;2023-09-19T02:27:32;10.50;;;2.03;;
21894;SDS011;11112;51.270;7.224;2023-09-19T02:29:59;8.55;;;1.90;;
21894;SDS011;11112;51.270;7.224;2023-09-19T02:32:29;9.07;;;2.22;;
21894;SDS011;11112;51.270;7.224;2023-09-19T02:34:56;8.88;;;2.22;;
21894;SDS011;11112;51.270;7.224;2023-09-19T02:37:25;7.13;;;2.00;;
21894;SDS011;11112;51.270;7.224;2023-09-19T02:39:52;8.07;;;2.08;;
21894;SDS011;11112;51.270;7.224;2023-09-19T02:45:27;10.18;;;2.20;;
21894;SDS011;11112;51.270;7.224;2023-09-19T02:48:09;8.23;;;1.90;;
21894;SDS011;11112;51.270;7.224;2023-09-19T02:51:11;9.75;;;2.28;;
21894;SDS011;11112;51.270;7.224;2023-09-19T02:53:46;14.07;;;3.80;;
21894;SDS011;11112;51.270;7.224;2023-09-19T02:56:14;10.80;;;2.53;;
21894;SDS011;11112;51.270;7.224;2023-09-19T02:58:43;9.98;;;2.22;;
21894;SDS011;11112;51.270;7.224;2023-09-19T03:01:18;10.93;;;2.40;;
21894;SDS011;11112;51.270;7.224;2023-09-19T03:04:29;9.50;;;2.17;;
21894;SDS011;11112;51.270;7.224;2023-09-19T03:10:28;12.40;;;2.22;;
21894;SDS011;11112;51.270;7.224;2023-09-19T03:12:56;14.45;;;2.28;;
21894;SDS011;11112;51.270;7.224;2023-09-19T03:15:25;12.43;;;2.60;;
21894;SDS011;11112;51.270;7.224;2023-09-19T03:17:52;11.43;;;2.10;;
21894;SDS011;11112;51.270;7.224;2023-09-19T03:20:19;8.30;;;2.08;;
21894;SDS011;11112;51.270;7.224;2023-09-19T03:22:46;12.93;;;2.20;;
21894;SDS011;11112;51.270;7.224;2023-09-19T03:25:14;9.50;;;1.90;;
21894;SDS011;11112;51.270;7.224;2023-09-19T03:27:43;11.02;;;2.28;;
21894;SDS011;11112;51.270;7.224;2023-09-19T03:30:11;7.88;;;1.92;;
21894;SDS011;11112;51.270;7.224;2023-09-19T03:32:43;12.27;;;2.50;;
21894;SDS011;11112;51.270;7.224;2023-09-19T03:35:11;15.07;;;2.30;;
21894;SDS011;11112;51.270;7.224;2023-09-19T03:37:39;13.80;;;1.85;;
21894;SDS011;11112;51.270;7.224;2023-09-19T03:40:07;8.65;;;2.17;;
21894;SDS011;11112;51.270;7.224;2023-09-19T03:42:37;9.40;;;2.22;;
21894;SDS011;11112;51.270;7.224;2023-09-19T03:45:07;12.43;;;2.13;;
21894;SDS011;11112;51.270;7.224;2023-09-19T03:47:37;11.20;;;2.10;;
21894;SDS011;11112;51.270;7.224;2023-09-19T03:50:05;8.32;;;1.88;;
21894;SDS011;11112;51.270;7.224;2023-09-19T03:52:33;10.73;;;2.22;;
21894;SDS011;11112;51.270;7.224;2023-09-19T03:55:00;8.10;;;1.98;;
21894;SDS011;11112;51.270;7.224;2023-09-19T03:57:29;10.43;;;2.17;;
21894;SDS011;11112;51.270;7.224;2023-09-19T03:59:56;10.32;;;1.90;;
21894;SDS011;11112;51.270;7.224;2023-09-19T04:02:25;9.75;;;1.80;;
21894;SDS011;11112;51.270;7.224;2023-09-19T04:04:58;11.45;;;2.00;;
21894;SDS011;11112;51.270;7.224;2023-09-19T04:07:25;8.77;;;1.88;;
21894;SDS011;11112;51.270;7.224;2023-09-19T04:09:54;10.85;;;2.15;;
21894;SDS011;11112;51.270;7.224;2023-09-19T04:12:21;15.13;;;2.10;;
21894;SDS011;11112;51.270;7.224;2023-09-19T04:14:48;9.75;;;1.83;;
21894;SDS011;11112;51.270;7.224;2023-09-19T04:17:15;10.35;;;1.95;;
21894;SDS011;11112;51.270;7.224;2023-09-19T04:19:45;9.10;;;1.92;;
21894;SDS011;11112;51.270;7.224;2023-09-19T04:22:12;11.10;;;2.05;;
21894;SDS011;11112;51.270;7.224;2023-09-19T04:27:47;10.88;;;2.28;;
21894;SDS011;11112;51.270;7.224;2023-09-19T04:30:14;10.77;;;2.35;;
21894;SDS011;11112;51.270;7.224;2023-09-19T04:32:41;10.23;;;1.90;;
21894;SDS011;11112;51.270;7.224;2023-09-19T04:35:11;6.90;;;1.60;;
21894;SDS011;11112;51.270;7.224;2023-09-19T04:37:38;9.02;;;2.03;;
21894;SDS011;11112;51.270;7.224;2023-09-19T04:40:07;10.25;;;2.10;;
21894;SDS011;11112;51.270;7.224;2023-09-19T04:42:40;7.97;;;2.00;;
21894;SDS011;11112;51.270;7.224;2023-09-19T04:45:08;8.23;;;2.00;;
21894;SDS011;11112;51.270;7.224;2023-09-19T04:47:36;10.98;;;2.22;;
21894;SDS011;11112;51.270;7.224;2023-09-19T04:50:05;10.80;;;2.20;;
21894;SDS011;11112;51.270;7.224;2023-09-19T04:52:39;12.57;;;2.15;;
21894;SDS011;11112;51.270;7.224;2023-09-19T04:55:09;10.80;;;2.27;;
21894;SDS011;11112;51.270;7.224;2023-09-19T04:57:42;13.57;;;2.53;;
21894;SDS011;11112;51.270;7.224;2023-09-19T05:00:12;8.65;;;2.00;;
21894;SDS011;11112;51.270;7.224;2023-09-19T05:02:42;11.82;;;2.22;;
21894;SDS011;11112;51.270;7.224;2023-09-19T05:05:10;11.75;;;2.28;;
21894;SDS011;11112;51.270;7.224;2023-09-19T05:07:41;10.80;;;2.15;;
21894;SDS011;11112;51.270;7.224;2023-09-19T05:10:09;11.43;;;2.25;;
21894;SDS011;11112;51.270;7.224;2023-09-19T05:12:36;9.07;;;2.28;;
21894;SDS011;11112;51.270;7.224;2023-09-19T05:15:05;9.25;;;2.05;;
21894;SDS011;11112;51.270;7.224;2023-09-19T05:17:34;12.63;;;2.28;;
21894;SDS011;11112;51.270;7.224;2023-09-19T05:20:02;9.43;;;2.08;;
21894;SDS011;11112;51.270;7.224;2023-09-19T05:22:41;11.40;;;2.22;;
21894;SDS011;11112;51.270;7.224;2023-09-19T05:25:11;10.60;;;2.10;;
21894;SDS011;11112;51.270;7.224;2023-09-19T05:27:42;12.05;;;2.22;;
21894;SDS011;11112;51.270;7.224;2023-09-19T05:30:10;10.75;;;2.28;;
21894;SDS011;11112;51.270;7.224;2023-09-19T05:32:40;10.13;;;2.40;;
21894;SDS011;11112;51.270;7.224;2023-09-19T05:35:08;9.60;;;2.20;;
21894;SDS011;11112;51.270;7.224;2023-09-19T05:37:38;10.32;;;2.40;;
21894;SDS011;11112;51.270;7.224;2023-09-19T05:40:08;10.70;;;2.53;;
21894;SDS011;11112;51.270;7.224;2023-09-19T05:42:37;10.75;;;2.33;;
21894;SDS011;11112;51.270;7.224;2023-09-19T05:45:06;11.80;;;2.63;;
21894;SDS011;11112;51.270;7.224;2023-09-19T05:47:37;10.02;;;2.30;;
21894;SDS011;11112;51.270;7.224;2023-09-19T05:50:05;9.07;;;2.75;;
21894;SDS011;11112;51.270;7.224;2023-09-19T05:52:34;13.63;;;2.08;;
21894;SDS011;11112;51.270;7.224;2023-09-19T05:55:03;11.43;;;2.28;;
21894;SDS011;11112;51.270;7.224;2023-09-19T05:57:34;11.80;;;2.38;;
21894;SDS011;11112;51.270;7.224;2023-09-19T06:00:02;9.80;;;2.33;;
21894;SDS011;11112;51.270;7.224;2023-09-19T06:02:34;13.38;;;2.60;;
21894;SDS011;11112;51.270;7.224;2023-09-19T06:05:03;10.60;;;2.35;;
21894;SDS011;11112;51.270;7.224;2023-09-19T06:07:35;11.60;;;2.65;;
21894;SDS011;11112;51.270;7.224;2023-09-19T06:10:02;9.02;;;2.50;;
21894;SDS011;11112;51.270;7.224;2023-09-19T06:12:32;12.88;;;2.38;;
21894;SDS011;11112;51.270;7.224;2023-09-19T06:15:04;12.48;;;2.33;;
21894;SDS011;11112;51.270;7.224;2023-09-19T06:17:34;13.10;;;2.60;;
21894;SDS011;11112;51.270;7.224;2023-09-19T06:20:03;8.50;;;2.65;;
21894;SDS011;11112;51.270;7.224;2023-09-19T06:22:37;12.10;;;2.20;;
21894;SDS011;11112;51.270;7.224;2023-09-19T06:25:06;10.07;;;2.47;;
21894;SDS011;11112;51.270;7.224;2023-09-19T06:27:37;13.75;;;2.55;;
21894;SDS011;11112;51.270;7.224;2023-09-19T06:30:06;11.15;;;2.38;;
21894;SDS011;11112;51.270;7.224;2023-09-19T06:32:37;12.18;;;2.55;;
21894;SDS011;11112;51.270;7.224;2023-09-19T06:35:05;10.43;;;2.33;;
21894;SDS011;11112;51.270;7.224;2023-09-19T06:37:36;10.98;;;2.50;;
21894;SDS011;11112;51.270;7.224;2023-09-19T06:40:05;13.10;;;2.42;;
21894;SDS011;11112;51.270;7.224;2023-09-19T06:42:40;13.63;;;2.38;;
21894;SDS011;11112;51.270;7.224;2023-09-19T06:45:09;12.95;;;2.42;;
21894;SDS011;11112;51.270;7.224;2023-09-19T06:47:38;9.52;;;2.58;;
21894;SDS011;11112;51.270;7.224;2023-09-19T06:50:06;13.13;;;2.58;;
21894;SDS011;11112;51.270;7.224;2023-09-19T06:52:38;13.77;;;2.67;;
21894;SDS011;11112;51.270;7.224;2023-09-19T06:55:07;14.00;;;2.60;;
21894;SDS011;11112;51.270;7.224;2023-09-19T06:57:37;11.02;;;2.50;;
21894;SDS011;11112;51.270;7.224;2023-09-19T07:00:09;12.45;;;2.53;;
21894;SDS011;11112;51.270;7.224;2023-09-19T07:02:43;12.27;;;2.47;;
21894;SDS011;11112;51.270;7.224;2023-09-19T07:05:11;12.60;;;2.40;;
21894;SDS011;11112;51.270;7.224;2023-09-19T07:07:41;12.20;;;2.60;;
21894;SDS011;11112;51.270;7.224;2023-09-19T07:10:18;15.15;;;2.67;;
21894;SDS011;11112;51.270;7.224;2023-09-19T07:12:45;13.77;;;2.58;;
21894;SDS011;11112;51.270;7.224;2023-09-19T07:15:13;10.65;;;2.70;;
21894;SDS011;11112;51.270;7.224;2023-09-19T07:17:41;10.63;;;2.22;;
21894;SDS011;11112;51.270;7.224;2023-09-19T07:20:10;12.05;;;2.60;;
21894;SDS011;11112;51.270;7.224;2023-09-19T07:22:41;10.77;;;2.50;;
21894;SDS011;11112;51.270;7.224;2023-09-19T07:25:08;10.50;;;2.30;;
21894;SDS011;11112;51.270;7.224;2023-09-19T07:27:35;12.07;;;2.50;;
21894;SDS011;11112;51.270;7.224;2023-09-19T07:30:03;12.93;;;2.72;;
21894;SDS011;11112;51.270;7.224;2023-09-19T07:32:34;13.63;;;2.70;;
21894;SDS011;11112;51.270;7.224;2023-09-19T07:35:03;11.27;;;2.28;;
21894;SDS011;11112;51.270;7.224;2023-09-19T07:37:31;12.80;;;2.50;;
21894;SDS011;11112;51.270;7.224;2023-09-19T07:39:59;14.30;;;2.50;;
21894;SDS011;11112;51.270;7.224;2023-09-19T07:42:28;13.25;;;2.90;;
21894;SDS011;11112;51.270;7.224;2023-09-19T07:44:57;8.93;;;1.95;;
21894;SDS011;11112;51.270;7.224;2023-09-19T07:47:25;14.52;;;2.40;;
21894;SDS011;11112;51.270;7.224;2023-09-19T07:49:53;12.35;;;1.98;;
21894;SDS011;11112;51.270;7.224;2023-09-19T07:52:21;12.38;;;2.35;;
21894;SDS011;11112;51.270;7.224;2023-09-19T07:54:49;13.07;;;2.00;;
21894;SDS011;11112;51.270;7.224;2023-09-19T07:57:16;10.68;;;2.63;;
21894;SDS011;11112;51.270;7.224;2023-09-19T07:59:44;15.27;;;2.50;;
21894;SDS011;11112;51.270;7.224;2023-09-19T08:02:12;14.73;;;2.78;;
21894;SDS011;11112;51.270;7.224;2023-09-19T08:04:42;10.05;;;2.35;;
21894;SDS011;11112;51.270;7.224;2023-09-19T08:07:12;12.68;;;2.58;;
21894;SDS011;11112;51.270;7.224;2023-09-19T08:09:39;11.35;;;2.45;;
21894;SDS011;11112;51.270;7.224;2023-09-19T08:12:07;13.60;;;2.30;;
21894;SDS011;11112;51.270;7.224;2023-09-19T08:14:35;13.50;;;2.50;;
21894;SDS011;11112;51.270;7.224;2023-09-19T08:17:03;10.75;;;2.58;;
21894;SDS011;11112;51.270;7.224;2023-09-19T08:19:31;11.15;;;2.40;;
21894;SDS011;11112;51.270;7.224;2023-09-19T08:22:01;12.48;;;2.40;;
21894;SDS011;11112;51.270;7.224;2023-09-19T08:24:30;10.88;;;2.30;;
21894;SDS011;11112;51.270;7.224;2023-09-19T08:26:58;11.00;;;2.40;;
21894;SDS011;11112;51.270;7.224;2023-09-19T08:29:29;21.73;;;2.90;;
21894;SDS011;11112;51.270;7.224;2023-09-19T08:31:57;13.60;;;2.70;;
21894;SDS011;11112;51.270;7.224;2023-09-19T08:34:26;15.63;;;2.75;;
21894;SDS011;11112;51.270;7.224;2023-09-19T08:36:58;13.10;;;2.75;;
21894;SDS011;11112;51.270;7.224;2023-09-19T08:39:26;9.18;;;2.50;;
21894;SDS011;11112;51.270;7.224;2023-09-19T08:41:58;12.65;;;2.40;;
21894;SDS011;11112;51.270;7.224;2023-09-19T08:44:27;12.43;;;2.43;;
21894;SDS011;11112;51.270;7.224;2023-09-19T08:46:57;9.95;;;2.33;;
21894;SDS011;11112;51.270;7.224;2023-09-19T08:49:36;13.43;;;2.55;;
21894;SDS011;11112;51.270;7.224;2023-09-19T08:52:16;10.25;;;2.28;;
21894;SDS011;11112;51.270;7.224;2023-09-19T08:54:51;11.15;;;2.20;;
21894;SDS011;11112;51.270;7.224;2023-09-19T08:57:23;10.93;;;2.10;;
21894;SDS011;11112;51.270;7.224;2023-09-19T08:59:51;12.65;;;2.30;;
21894;SDS011;11112;51.270;7.224;2023-09-19T09:02:19;9.82;;;2.30;;
21894;SDS011;11112;51.270;7.224;2023-09-19T09:04:50;10.55;;;2.45;;
21894;SDS011;11112;51.270;7.224;2023-09-19T09:07:19;11.27;;;2.65;;
21894;SDS011;11112;51.270;7.224;2023-09-19T09:09:49;10.32;;;2.42;;
21894;SDS011;11112;51.270;7.224;2023-09-19T09:12:17;13.02;;;2.70;;
21894;SDS011;11112;51.270;7.224;2023-09-19T09:14:46;10.10;;;2.35;;
21894;SDS011;11112;51.270;7.224;2023-09-19T09:17:13;10.85;;;2.47;;
21894;SDS011;11112;51.270;7.224;2023-09-19T09:19:41;12.93;;;2.60;;
21894;SDS011;11112;51.270;7.224;2023-09-19T09:22:09;11.85;;;2.20;;
21894;SDS011;11112;51.270;7.224;2023-09-19T09:24:38;11.25;;;2.35;;
21894;SDS011;11112;51.270;7.224;2023-09-19T09:27:18;10.82;;;2.45;;
21894;SDS011;11112;51.270;7.224;2023-09-19T09:29:51;10.45;;;2.20;;
21894;SDS011;11112;51.270;7.224;2023-09-19T09:32:20;11.43;;;2.45;;
21894;SDS011;11112;51.270;7.224;2023-09-19T09:34:50;8.63;;;1.98;;
21894;SDS011;11112;51.270;7.224;2023-09-19T09:37:19;11.38;;;2.33;;
21894;SDS011;11112;51.270;7.224;2023-09-19T09:39:50;10.45;;;2.38;;
21894;SDS011;11112;51.270;7.224;2023-09-19T09:42:30;10.70;;;2.10;;
21894;SDS011;11112;51.270;7.224;2023-09-19T09:45:18;12.83;;;2.20;;
21894;SDS011;11112;51.270;7.224;2023-09-19T09:47:53;10.40;;;2.08;;
21894;SDS011;11112;51.270;7.224;2023-09-19T09:50:24;9.52;;;2.35;;
21894;SDS011;11112;51.270;7.224;2023-09-19T09:53:04;9.80;;;2.30;;
21894;SDS011;11112;51.270;7.224;2023-09-19T09:55:58;10.15;;;2.20;;
21894;SDS011;11112;51.270;7.224;2023-09-19T09:58:31;9.23;;;2.15;;
21894;SDS011;11112;51.270;7.224;2023-09-19T10:01:03;10.70;;;2.38;;
21894;SDS011;11112;51.270;7.224;2023-09-19T10:03:36;11.93;;;2.33;;
21894;SDS011;11112;51.270;7.224;2023-09-19T10:06:10;10.90;;;2.17;;
21894;SDS011;11112;51.270;7.224;2023-09-19T10:09:00;9.18;;;2.22;;
21894;SDS011;11112;51.270;7.224;2023-09-19T10:11:36;13.27;;;2.45;;
21894;SDS011;11112;51.270;7.224;2023-09-19T10:14:13;10.52;;;2.25;;
21894;SDS011;11112;51.270;7.224;2023-09-19T10:16:46;11.77;;;2.08;;
21894;SDS011;11112;51.270;7.224;2023-09-19T10:19:16;13.18;;;2.70;;
21894;SDS011;11112;51.270;7.224;2023-09-19T10:21:58;10.63;;;2.30;;
21894;SDS011;11112;51.270;7.224;2023-09-19T10:24:28;8.73;;;2.08;;
21894;SDS011;11112;51.270;7.224;2023-09-19T10:26:56;9.93;;;2.00;;
21894;SDS011;11112;51.270;7.224;2023-09-19T10:29:28;10.70;;;2.40;;
21894;SDS011;11112;51.270;7.224;2023-09-19T10:32:03;10.10;;;2.03;;
21894;SDS011;11112;51.270;7.224;2023-09-19T10:34:34;10.75;;;2.30;;
21894;SDS011;11112;51.270;7.224;2023-09-19T10:37:03;8.07;;;1.83;;
21894;SDS011;11112;51.270;7.224;2023-09-19T10:39:34;8.00;;;2.05;;
21894;SDS011;11112;51.270;7.224;2023-09-19T10:42:04;7.53;;;1.90;;
21894;SDS011;11112;51.270;7.224;2023-09-19T10:44:34;8.43;;;2.15;;
21894;SDS011;11112;51.270;7.224;2023-09-19T10:47:10;9.63;;;2.05;;
21894;SDS011;11112;51.270;7.224;2023-09-19T10:49:42;9.93;;;2.15;;
21894;SDS011;11112;51.270;7.224;2023-09-19T10:52:13;10.25;;;2.30;;
21894;SDS011;11112;51.270;7.224;2023-09-19T10:54:49;10.73;;;2.08;;
21894;SDS011;11112;51.270;7.224;2023-09-19T10:57:22;6.97;;;2.03;;
21894;SDS011;11112;51.270;7.224;2023-09-19T11:00:02;8.88;;;2.20;;
21894;SDS011;11112;51.270;7.224;2023-09-19T11:06:05;10.82;;;2.00;;
21894;SDS011;11112;51.270;7.224;2023-09-19T11:08:52;8.48;;;2.20;;
21894;SDS011;11112;51.270;7.224;2023-09-19T11:11:48;12.00;;;2.25;;
21894;SDS011;11112;51.270;7.224;2023-09-19T11:14:28;10.18;;;2.08;;
21894;SDS011;11112;51.270;7.224;2023-09-19T11:23:21;10.27;;;1.98;;
21894;SDS011;11112;51.270;7.224;2023-09-19T11:25:50;7.75;;;2.22;;
21894;SDS011;11112;51.270;7.224;2023-09-19T11:28:34;5.70;;;1.73;;
21894;SDS011;11112;51.270;7.224;2023-09-19T11:34:42;8.13;;;2.10;;
21894;SDS011;11112;51.270;7.224;2023-09-19T11:40:44;6.28;;;1.48;;
21894;SDS011;11112;51.270;7.224;2023-09-19T11:43:30;7.78;;;1.83;;
21894;SDS011;11112;51.270;7.224;2023-09-19T11:46:04;7.25;;;1.77;;
21894;SDS011;11112;51.270;7.224;2023-09-19T11:48:32;7.30;;;1.75;;
21894;SDS011;11112;51.270;7.224;2023-09-19T11:51:09;5.85;;;1.83;;
21894;SDS011;11112;51.270;7.224;2023-09-19T11:53:49;7.38;;;1.88;;
21894;SDS011;11112;51.270;7.224;2023-09-19T11:56:18;10.98;;;2.08;;
21894;SDS011;11112;51.270;7.224;2023-09-19T11:58:48;8.13;;;2.05;;
21894;SDS011;11112;51.270;7.224;2023-09-19T12:01:21;9.82;;;2.08;;
21894;SDS011;11112;51.270;7.224;2023-09-19T12:03:54;9.45;;;2.00;;
21894;SDS011;11112;51.270;7.224;2023-09-19T12:06:24;6.20;;;1.60;;
21894;SDS011;11112;51.270;7.224;2023-09-19T12:08:53;8.85;;;2.17;;
21894;SDS011;11112;51.270;7.224;2023-09-19T12:11:22;10.43;;;2.60;;
21894;SDS011;11112;51.270;7.224;2023-09-19T12:13:50;6.97;;;2.20;;
21894;SDS011;11112;51.270;7.224;2023-09-19T12:16:19;6.72;;;1.90;;
21894;SDS011;11112;51.270;7.224;2023-09-19T12:18:51;6.63;;;1.52;;
21894;SDS011;11112;51.270;7.224;2023-09-19T12:21:22;6.93;;;1.92;;
21894;SDS011;11112;51.270;7.224;2023-09-19T12:24:11;5.65;;;1.70;;
21894;SDS011;11112;51.270;7.224;2023-09-19T12:26:42;7.57;;;1.98;;
21894;SDS011;11112;51.270;7.224;2023-09-19T12:29:13;7.47;;;1.90;;
21894;SDS011;11112;51.270;7.224;2023-09-19T12:31:47;9.05;;;1.83;;
21894;SDS011;11112;51.270;7.224;2023-09-19T12:34:21;5.68;;;1.58;;
21894;SDS011;11112;51.270;7.224;2023-09-19T12:37:08;6.53;;;1.90;;
21894;SDS011;11112;51.270;7.224;2023-09-19T12:39:43;6.03;;;1.33;;
21894;SDS011;11112;51.270;7.224;2023-09-19T12:42:15;8.00;;;2.00;;
21894;SDS011;11112;51.270;7.224;2023-09-19T12:44:44;8.35;;;1.48;;
21894;SDS011;11112;51.270;7.224;2023-09-19T12:47:13;7.25;;;1.73;;
21894;SDS011;11112;51.270;7.224;2023-09-19T12:52:42;8.25;;;1.83;;
21894;SDS011;11112;51.270;7.224;2023-09-19T12:55:21;6.30;;;1.85;;
21894;SDS011;11112;51.270;7.224;2023-09-19T12:57:59;8.38;;;1.90;;
21894;SDS011;11112;51.270;7.224;2023-09-19T13:00:36;5.88;;;1.77;;
21894;SDS011;11112;51.270;7.224;2023-09-19T13:03:15;7.57;;;1.55;;
21894;SDS011;11112;51.270;7.224;2023-09-19T13:05:50;7.75;;;1.77;;
21894;SDS011;11112;51.270;7.224;2023-09-19T13:08:20;8.30;;;1.92;;
21894;SDS011;11112;51.270;7.224;2023-09-19T13:11:03;8.00;;;2.13;;
21894;SDS011;11112;51.270;7.224;2023-09-19T13:13:46;6.13;;;2.00;;
21894;SDS011;11112;51.270;7.224;2023-09-19T13:16:19;6.72;;;1.63;;
21894;SDS011;11112;51.270;7.224;2023-09-19T13:18:49;6.80;;;1.77;;
21894;SDS011;11112;51.270;7.224;2023-09-19T13:21:29;5.65;;;1.45;;
21894;SDS011;11112;51.270;7.224;2023-09-19T13:24:17;4.95;;;1.40;;
21894;SDS011;11112;51.270;7.224;2023-09-19T13:26:48;6.55;;;1.50;;
21894;SDS011;11112;51.270;7.224;2023-09-19T13:29:15;5.05;;;1.52;;
21894;SDS011;11112;51.270;7.224;2023-09-19T13:31:48;4.22;;;1.75;;
21894;SDS011;11112;51.270;7.224;2023-09-19T13:34:16;7.05;;;1.70;;
21894;SDS011;11112;51.270;7.224;2023-09-19T13:36:43;8.30;;;1.75;;
21894;SDS011;11112;51.270;7.224;2023-09-19T13:39:13;7.00;;;2.03;;
21894;SDS011;11112;51.270;7.224;2023-09-19T13:41:41;5.45;;;1.40;;
21894;SDS011;11112;51.270;7.224;2023-09-19T13:44:13;6.50;;;1.50;;
21894;SDS011;11112;51.270;7.224;2023-09-19T13:46:43;7.60;;;1.40;;
21894;SDS011;11112;51.270;7.224;2023-09-19T13:49:11;6.00;;;1.35;;
21894;SDS011;11112;51.270;7.224;2023-09-19T13:51:38;7.47;;;1.70;;
21894;SDS011;11112;51.270;7.224;2023-09-19T13:54:08;5.35;;;1.45;;
21894;SDS011;11112;51.270;7.224;2023-09-19T13:56:37;3.85;;;1.20;;
21894;SDS011;11112;51.270;7.224;2023-09-19T13:59:04;5.53;;;1.50;;
21894;SDS011;11112;51.270;7.224;2023-09-19T14:01:33;6.80;;;1.38;;
21894;SDS011;11112;51.270;7.224;2023-09-19T14:04:00;5.57;;;1.30;;
21894;SDS011;11112;51.270;7.224;2023-09-19T14:06:30;4.40;;;1.13;;
21894;SDS011;11112;51.270;7.224;2023-09-19T14:08:58;4.60;;;1.10;;
21894;SDS011;11112;51.270;7.224;2023-09-19T14:11:26;4.97;;;1.42;;
21894;SDS011;11112;51.270;7.224;2023-09-19T14:13:53;4.85;;;1.17;;
21894;SDS011;11112;51.270;7.224;2023-09-19T14:16:20;3.15;;;0.90;;
21894;SDS011;11112;51.270;7.224;2023-09-19T14:18:51;2.90;;;0.93;;
21894;SDS011;11112;51.270;7.224;2023-09-19T14:21:18;6.90;;;1.20;;
21894;SDS011;11112;51.270;7.224;2023-09-19T14:23:45;3.65;;;0.80;;
21894;SDS011;11112;51.270;7.224;2023-09-19T14:26:13;5.55;;;0.90;;
21894;SDS011;11112;51.270;7.224;2023-09-19T14:28:40;5.13;;;1.00;;
21894;SDS011;11112;51.270;7.224;2023-09-19T14:31:08;4.40;;;0.90;;
21894;SDS011;11112;51.270;7.224;2023-09-19T14:33:37;5.50;;;0.98;;
21894;SDS011;11112;51.270;7.224;2023-09-19T14:36:07;4.32;;;0.90;;
21894;SDS011;11112;51.270;7.224;2023-09-19T14:38:36;5.10;;;0.80;;
21894;SDS011;11112;51.270;7.224;2023-09-19T14:41:04;4.68;;;0.90;;
21894;SDS011;11112;51.270;7.224;2023-09-19T14:43:33;4.70;;;1.02;;
21894;SDS011;11112;51.270;7.224;2023-09-19T14:46:02;3.35;;;0.85;;
21894;SDS011;11112;51.270;7.224;2023-09-19T14:48:29;3.25;;;0.70;;
21894;SDS011;11112;51.270;7.224;2023-09-19T14:51:01;4.00;;;0.70;;
21894;SDS011;11112;51.270;7.224;2023-09-19T14:53:31;4.05;;;1.15;;
21894;SDS011;11112;51.270;7.224;2023-09-19T14:56:00;4.40;;;0.88;;
21894;SDS011;11112;51.270;7.224;2023-09-19T14:58:31;2.70;;;1.00;;
21894;SDS011;11112;51.270;7.224;2023-09-19T15:01:05;3.47;;;0.90;;
21894;SDS011;11112;51.270;7.224;2023-09-19T15:03:35;4.95;;;1.02;;
21894;SDS011;11112;51.270;7.224;2023-09-19T15:06:04;5.47;;;1.15;;
21894;SDS011;11112;51.270;7.224;2023-09-19T15:08:35;4.75;;;1.60;;
21894;SDS011;11112;51.270;7.224;2023-09-19T15:11:05;6.57;;;1.10;;
21894;SDS011;11112;51.270;7.224;2023-09-19T15:13:33;4.00;;;1.13;;
21894;SDS011;11112;51.270;7.224;2023-09-19T15:16:02;6.15;;;0.90;;
21894;SDS011;11112;51.270;7.224;2023-09-19T15:18:34;4.90;;;0.95;;
21894;SDS011;11112;51.270;7.224;2023-09-19T15:21:02;6.63;;;0.88;;
21894;SDS011;11112;51.270;7.224;2023-09-19T15:23:30;3.33;;;0.88;;
21894;SDS011;11112;51.270;7.224;2023-09-19T15:25:59;4.40;;;1.17;;
21894;SDS011;11112;51.270;7.224;2023-09-19T15:28:26;7.38;;;0.98;;
21894;SDS011;11112;51.270;7.224;2023-09-19T15:30:57;3.47;;;1.00;;
21894;SDS011;11112;51.270;7.224;2023-09-19T15:33:26;5.22;;;1.05;;
21894;SDS011;11112;51.270;7.224;2023-09-19T15:36:00;6.00;;;1.00;;